Time;durP1;ratioP1;P1;durP2;ratioP2;P2;SDS_P1;SDS_P2;PMS_P1;PMS_P2;Temp;Humidity;BMP_temperature;BMP_pressure;BME280_temperature;BME280_humidity;BME280_pressure;Samples;Min_cycle;Max_cycle;Signal;HPM_P1;HPM_P2
2023/02/24 00:02:23;;;;;;;56.10;29.60;;;;;;;5.57;78.16;99042.96;217589;1257;138651;-68
2023/02/24 00:07:28;;;;;;;50.70;27.80;;;;;;;5.60;78.18;99037.60;217615;1257;140616;-68
2023/02/24 00:12:33;;;;;;;52.80;31.60;;;;;;;5.63;78.38;99030.58;217517;1257;139301;-67
2023/02/24 00:17:37;;;;;;;54.30;32.20;;;;;;;5.67;78.53;99022.32;219360;1257;139354;-69
2023/02/24 00:22:43;;;;;;;51.00;29.90;;;;;;;5.69;78.75;99019.61;218108;1260;140100;-68
2023/02/24 00:27:48;;;;;;;61.50;32.90;;;;;;;5.70;78.68;99010.04;217761;1257;139521;-68
2023/02/24 00:32:51;;;;;;;60.40;32.30;;;;;;;5.78;78.45;99005.86;218728;1257;139193;-67
2023/02/24 00:37:55;;;;;;;53.10;32.20;;;;;;;5.84;79.02;98998.88;217517;1257;139491;-66
2023/02/24 00:42:58;;;;;;;55.60;33.80;;;;;;;5.91;79.05;98992.27;220185;1257;141487;-69
2023/02/24 00:48:03;;;;;;;49.70;33.40;;;;;;;5.93;79.07;98989.29;219310;1257;140179;-70
2023/02/24 00:53:06;;;;;;;47.60;29.90;;;;;;;5.97;79.19;98984.15;220136;1257;139858;-71
2023/02/24 00:58:10;;;;;;;62.00;32.60;;;;;;;6.05;78.89;98977.88;219002;1257;141068;-70
2023/02/24 01:03:13;;;;;;;46.30;30.50;;;;;;;6.13;79.00;98974.98;220090;1257;140701;-70
2023/02/24 01:08:20;;;;;;;46.60;28.80;;;;;;;6.19;78.71;98972.66;220106;1257;140152;-71
2023/02/24 01:13:23;;;;;;;;;;;;;;;6.24;78.66;98964.81;217182;1261;140121;-65
2023/02/24 01:18:29;;;;;;;53.10;30.40;;;;;;;6.29;78.95;98956.52;218637;1257;126594;-67
2023/02/24 01:23:34;;;;;;;55.40;32.70;;;;;;;6.33;79.06;98950.81;217294;1259;139592;-68
2023/02/24 01:28:37;;;;;;;55.30;32.80;;;;;;;6.31;79.20;98948.64;217451;1260;139961;-68
2023/02/24 01:33:44;;;;;;;49.90;29.80;;;;;;;6.29;79.39;98940.45;218769;1260;139672;-67
2023/02/24 01:38:48;;;;;;;;;;;;;;;6.35;79.67;98941.17;218224;1257;222328;-68
2023/02/24 01:44:00;;;;;;;114.50;64.80;;;;;;;6.34;79.68;98932.75;218958;1256;125913;-66
2023/02/24 01:49:17;;;;;;;81.80;48.80;;;;;;;6.38;80.08;98925.29;217935;1257;139488;-69
2023/02/24 01:54:25;;;;;;;57.70;33.50;;;;;;;6.41;80.03;98918.63;218827;1256;140630;-68
2023/02/24 01:59:29;;;;;;;55.00;33.00;;;;;;;6.42;79.84;98912.45;217873;1256;139969;-67
2023/02/24 02:05:03;;;;;;;56.40;29.60;;;;;;;6.45;80.35;98903.65;218333;1257;139605;-66
2023/02/24 02:10:08;;;;;;;50.60;32.00;;;;;;;6.41;80.22;98899.45;218310;1257;139922;-67
2023/02/24 02:15:14;;;;;;;52.00;30.20;;;;;;;6.38;80.42;98899.48;218495;1256;140583;-68
2023/02/24 02:20:42;;;;;;;47.70;31.50;;;;;;;6.42;80.47;98893.52;218946;1256;141305;-64
2023/02/24 02:26:17;;;;;;;52.90;30.60;;;;;;;6.40;80.34;98886.83;218066;1257;139756;-65
2023/02/24 02:31:34;;;;;;;55.30;32.40;;;;;;;6.35;80.71;98886.19;218907;1256;139532;-68
2023/02/24 02:36:54;;;;;;;49.60;29.80;;;;;;;6.34;81.45;98877.45;219396;1257;140053;-66
2023/02/24 02:42:36;;;;;;;56.20;33.90;;;;;;;6.36;81.49;98866.99;220451;1256;139758;-67
2023/02/24 02:47:40;;;;;;;53.10;32.30;;;;;;;6.44;81.70;98864.52;220719;1254;140308;-67
2023/02/24 02:52:55;;;;;;;54.40;33.00;;;;;;;6.48;81.46;98857.45;220623;1256;140304;-67
2023/02/24 02:58:01;;;;;;;54.10;35.90;;;;;;;6.45;81.54;98850.13;220351;1256;140616;-66
2023/02/24 03:03:15;;;;;;;51.40;29.30;;;;;;;6.49;81.74;98852.80;219480;1256;139999;-65
2023/02/24 03:08:24;;;;;;;54.50;33.00;;;;;;;6.54;81.82;98847.75;217937;1259;141079;-69
2023/02/24 03:13:35;;;;;;;57.80;37.10;;;;;;;6.54;82.16;98844.52;218386;1256;138921;-66
2023/02/24 03:18:43;;;;;;;58.80;33.40;;;;;;;6.53;81.96;98841.95;217720;1259;139110;-70
2023/02/24 03:23:51;;;;;;;51.40;30.70;;;;;;;6.54;82.30;98839.64;217956;1257;141539;-68
2023/02/24 03:29:22;;;;;;;56.20;34.00;;;;;;;6.57;82.51;98835.05;217623;1257;140206;-69
2023/02/24 03:34:50;;;;;;;53.10;34.30;;;;;;;6.55;82.54;98833.03;218195;1259;138988;-68
2023/02/24 03:39:56;;;;;;;63.30;34.30;;;;;;;6.53;82.86;98826.55;218855;1257;140632;-68
2023/02/24 03:45:01;;;;;;;67.70;35.90;;;;;;;6.53;82.59;98820.77;218111;1255;140368;-67
2023/02/24 03:50:15;;;;;;;63.70;34.80;;;;;;;6.56;82.98;98817.24;218604;1256;140943;-68
2023/02/24 04:04:44;;;;;;;80.80;52.10;;;;;;;6.54;83.61;98802.05;215279;1289;662574;-69
2023/02/24 04:09:56;;;;;;;58.10;34.20;;;;;;;6.47;83.15;98792.83;215891;1272;139612;-69
2023/02/24 04:15:12;;;;;;;57.90;35.60;;;;;;;6.48;83.50;98782.43;214969;1272;1340509;-69
2023/02/24 04:20:19;;;;;;;63.40;35.70;;;;;;;6.50;83.93;98778.28;216193;1269;139068;-69
2023/02/24 04:25:24;;;;;;;64.30;37.60;;;;;;;6.49;83.97;98776.44;216142;1267;138881;-70
2023/02/24 04:30:35;;;;;;;46.60;30.90;;;;;;;6.49;83.84;98767.23;216641;1269;139303;-69
2023/02/24 04:35:39;;;;;;;53.70;34.00;;;;;;;6.49;83.80;98758.35;216218;1269;139817;-68
2023/02/24 04:40:42;;;;;;;67.30;37.20;;;;;;;6.48;83.81;98756.25;216312;1269;138669;-69
2023/02/24 04:45:45;;;;;;;53.10;30.90;;;;;;;6.50;83.97;98747.58;218431;1266;140218;-69
2023/02/24 04:50:53;;;;;;;53.40;34.60;;;;;;;6.55;84.17;98741.75;216696;1267;140119;-69
2023/02/24 04:56:07;;;;;;;59.00;34.60;;;;;;;6.62;84.10;98731.84;217407;1267;140150;-69
2023/02/24 05:01:13;;;;;;;60.00;35.30;;;;;;;6.67;84.25;98727.92;216093;1269;138660;-69
2023/02/24 05:06:17;;;;;;;54.80;31.20;;;;;;;6.70;84.38;98722.23;217460;1260;141002;-69
2023/02/24 05:11:20;;;;;;;61.00;32.70;;;;;;;6.67;84.13;98715.38;216954;1263;140345;-69
2023/02/24 05:16:27;;;;;;;59.90;32.00;;;;;;;6.64;84.56;98712.56;218027;1263;140120;-68
2023/02/24 05:21:34;;;;;;;52.70;32.70;;;;;;;6.66;84.52;98706.98;217086;1263;140765;-69
2023/02/24 05:26:40;;;;;;;50.50;29.90;;;;;;;6.66;84.56;98708.01;217555;1260;139141;-69
2023/02/24 05:31:44;;;;;;;54.20;31.10;;;;;;;6.69;84.63;98706.56;217185;1263;150782;-68
2023/02/24 05:36:48;;;;;;;49.10;28.10;;;;;;;6.63;84.38;98700.30;216967;1263;139290;-69
2023/02/24 05:41:53;;;;;;;48.30;26.80;;;;;;;6.58;84.92;98691.52;216802;1260;139149;-69
2023/02/24 05:46:57;;;;;;;43.00;27.00;;;;;;;6.61;85.13;98692.17;216954;1263;139866;-68
2023/02/24 05:52:08;;;;;;;37.00;23.60;;;;;;;6.63;84.95;98691.04;217743;1260;139758;-68
2023/02/24 05:57:16;;;;;;;38.30;25.20;;;;;;;6.58;85.20;98689.83;217503;1260;138645;-67
2023/02/24 06:02:26;;;;;;;48.10;24.80;;;;;;;6.62;85.25;98688.24;217006;1264;139919;-68
2023/02/24 06:07:34;;;;;;;44.60;26.20;;;;;;;6.67;85.45;98680.79;218673;1260;139749;-68
2023/02/24 06:12:38;;;;;;;37.80;23.70;;;;;;;6.70;85.26;98677.63;217114;1260;141485;-69
2023/02/24 06:17:42;;;;;;;40.20;25.60;;;;;;;6.65;85.67;98673.77;218339;1260;139033;-68
2023/02/24 06:22:45;;;;;;;41.40;25.90;;;;;;;6.67;85.37;98673.74;217926;1260;140469;-67
2023/02/24 06:27:54;;;;;;;44.90;23.50;;;;;;;6.71;85.57;98672.66;219249;1260;140013;-68
2023/02/24 06:32:58;;;;;;;36.50;23.00;;;;;;;6.77;85.63;98671.75;219689;1260;139672;-69
2023/02/24 06:38:03;;;;;;;37.70;24.70;;;;;;;6.75;85.57;98668.80;220067;1260;139897;-69
2023/02/24 06:43:08;;;;;;;32.70;20.80;;;;;;;6.75;85.74;98668.00;217949;1263;138818;-68
2023/02/24 06:48:12;;;;;;;35.90;23.00;;;;;;;6.77;85.44;98665.02;216932;1260;140073;-68
2023/02/24 06:53:17;;;;;;;38.50;25.10;;;;;;;6.78;85.80;98665.90;216931;1260;141531;-68
2023/02/24 06:58:23;;;;;;;39.30;22.40;;;;;;;6.82;86.02;98663.30;217074;1260;141673;-68
2023/02/24 07:04:01;;;;;;;42.50;23.40;;;;;;;6.82;86.15;98659.88;217684;1260;139392;-68
2023/02/24 07:09:09;;;;;;;44.20;24.80;;;;;;;6.81;85.79;98654.52;217221;1260;140108;-69
2023/02/24 07:14:14;;;;;;;34.50;22.60;;;;;;;6.85;85.96;98648.69;217620;1260;139886;-68
2023/02/24 07:19:16;;;;;;;42.60;23.30;;;;;;;6.89;86.33;98648.47;217044;1260;139388;-68
2023/02/24 07:24:31;;;;;;;36.40;21.30;;;;;;;6.90;86.81;98648.17;217028;1260;140198;-69
2023/02/24 07:29:36;;;;;;;37.20;24.40;;;;;;;6.88;86.05;98649.73;217376;1260;139217;-69
2023/02/24 07:34:39;;;;;;;39.10;23.30;;;;;;;6.86;86.26;98644.34;217025;1260;140417;-68
2023/02/24 07:39:42;;;;;;;43.00;23.30;;;;;;;6.83;86.04;98638.34;217099;1260;140405;-68
2023/02/24 07:44:45;;;;;;;35.70;22.80;;;;;;;6.84;86.66;98631.64;217071;1260;140608;-69
2023/02/24 07:49:50;;;;;;;35.90;22.50;;;;;;;6.84;86.80;98629.84;218318;1260;140541;-69
2023/02/24 07:54:54;;;;;;;35.60;20.80;;;;;;;6.90;86.51;98625.48;217073;1260;140990;-69
2023/02/24 07:59:58;;;;;;;38.20;23.50;;;;;;;6.95;86.41;98623.98;217017;1260;140630;-69
2023/02/24 08:05:01;;;;;;;38.80;22.90;;;;;;;6.99;86.39;98620.10;217537;1263;139562;-68
2023/02/24 08:10:23;;;;;;;33.50;20.80;;;;;;;6.98;86.56;98613.56;216982;1263;245169;-69
2023/02/24 08:15:32;;;;;;;38.90;23.60;;;;;;;6.96;86.47;98610.88;219081;1259;138631;-69
2023/02/24 08:20:52;;;;;;;36.30;22.00;;;;;;;7.00;86.94;98606.39;217196;1260;140486;-68
2023/02/24 08:25:56;;;;;;;30.10;18.60;;;;;;;7.06;86.88;98609.34;217636;1260;140383;-68
2023/02/24 08:31:03;;;;;;;27.90;18.10;;;;;;;7.12;86.86;98605.55;217238;1263;139211;-68
2023/02/24 08:36:07;;;;;;;30.70;18.70;;;;;;;7.03;86.79;98610.04;219942;1260;139867;-69
2023/02/24 08:41:16;;;;;;;22.70;13.50;;;;;;;6.96;86.59;98602.52;219821;1260;140730;-69
2023/02/24 08:46:31;;;;;;;15.00;10.30;;;;;;;6.91;86.32;98605.06;219206;1260;139682;-68
2023/02/24 08:51:42;;;;;;;16.30;9.80;;;;;;;6.94;86.20;98601.88;217612;1260;139457;-68
2023/02/24 08:56:48;;;;;;;14.00;7.50;;;;;;;6.93;86.39;98601.97;217211;1260;139054;-68
2023/02/24 09:02:13;;;;;;;14.80;8.10;;;;;;;6.92;86.25;98599.67;217847;1260;141268;-69
2023/02/24 09:07:24;;;;;;;13.10;7.90;;;;;;;6.91;85.76;98594.31;217151;1263;139344;-69
2023/02/24 09:12:29;;;;;;;20.30;9.60;;;;;;;6.83;85.28;98593.05;217916;1259;138259;-68
2023/02/24 09:17:48;;;;;;;17.70;7.80;;;;;;;6.75;84.96;98592.74;217156;1260;139595;-69
2023/02/24 09:23:18;;;;;;;14.30;7.00;;;;;;;6.76;85.91;98589.21;216954;1264;140036;-69
2023/02/24 09:28:24;;;;;;;14.40;9.00;;;;;;;6.77;85.62;98589.59;217759;1259;139151;-68
2023/02/24 09:33:40;;;;;;;15.80;8.80;;;;;;;6.77;85.66;98588.43;217111;1263;139269;-69
2023/02/24 09:44:17;;;;;;;11.50;7.20;;;;;;;6.81;85.33;98576.84;217141;1260;140296;-69
2023/02/24 09:49:23;;;;;;;17.60;9.00;;;;;;;6.85;85.47;98575.95;217108;1263;139697;-69
2023/02/24 09:54:34;;;;;;;18.30;9.60;;;;;;;6.90;85.23;98566.15;217873;1260;139364;-69
2023/02/24 10:00:23;;;;;;;17.70;7.90;;;;;;;6.87;85.37;98567.64;217135;1260;139150;-68
2023/02/24 10:05:37;;;;;;;16.60;8.00;;;;;;;6.85;85.54;98560.29;217896;1260;139267;-69
2023/02/24 10:10:59;;;;;;;22.60;10.50;;;;;;;6.85;85.37;98552.76;217956;1260;139366;-68
2023/02/24 10:16:13;;;;;;;19.10;10.00;;;;;;;6.87;85.23;98542.84;218251;1260;139745;-69
2023/02/24 10:21:59;;;;;;;19.50;11.50;;;;;;;6.86;85.11;98535.50;217351;1260;139350;-69
2023/02/24 10:27:13;;;;;;;27.70;13.10;;;;;;;6.80;84.81;98532.27;219773;1260;140234;-69
2023/02/24 10:32:33;;;;;;;21.60;12.40;;;;;;;6.85;85.21;98520.49;219396;1262;140936;-69
2023/02/24 10:37:37;;;;;;;25.60;14.40;;;;;;;6.89;85.31;98511.09;217196;1263;140210;-69
2023/02/24 10:42:46;;;;;;;23.00;13.40;;;;;;;7.05;85.61;98504.23;217376;1263;142121;-69
2023/02/24 10:47:55;;;;;;;19.30;11.60;;;;;;;7.27;85.43;98493.29;216993;1260;139713;-69
2023/02/24 10:53:25;;;;;;;26.40;12.40;;;;;;;7.32;84.71;98483.96;217138;1260;140554;-69
2023/02/24 10:58:43;;;;;;;24.40;12.90;;;;;;;7.35;84.72;98476.57;217122;1263;139707;-69
2023/02/24 11:04:00;;;;;;;21.50;11.90;;;;;;;7.30;84.94;98468.25;217963;1260;139147;-69
2023/02/24 11:19:59;;;;;;;18.00;11.50;;;;;;;7.25;84.56;98451.79;217323;1261;140732;-69
2023/02/24 11:25:13;;;;;;;19.80;12.40;;;;;;;7.16;83.81;98443.13;217610;1260;140253;-69
2023/02/24 11:30:18;;;;;;;20.60;11.60;;;;;;;7.27;84.49;98435.02;217033;1260;141244;-69
2023/02/24 11:35:23;;;;;;;18.40;13.20;;;;;;;7.40;84.58;98426.20;217932;1260;140692;-68
2023/02/24 11:40:31;;;;;;;25.50;12.40;;;;;;;7.42;84.21;98419.73;217035;1260;139508;-72
2023/02/24 11:45:35;;;;;;;26.30;12.60;;;;;;;7.45;84.29;98409.74;217667;1260;140243;-70
2023/02/24 11:51:01;;;;;;;15.80;11.80;;;;;;;7.50;83.89;98404.77;217247;1260;140172;-66
2023/02/24 11:56:30;;;;;;;24.10;14.70;;;;;;;7.43;83.47;98404.63;217899;1264;139090;-71
2023/02/24 12:01:49;;;;;;;29.40;15.20;;;;;;;7.40;83.83;98401.88;217020;1264;139020;-71
2023/02/24 12:07:08;;;;;;;25.40;14.70;;;;;;;7.44;83.79;98386.12;217680;1264;139760;-70
2023/02/24 12:12:21;;;;;;;;;;;;;;;7.43;83.79;98380.23;217072;1264;139792;-70
2023/02/24 12:17:27;;;;;;;23.00;15.80;;;;;;;7.48;83.97;98367.67;217360;1260;126129;-69
2023/02/24 12:22:44;;;;;;;21.60;12.80;;;;;;;7.72;84.23;98361.67;217037;1264;138807;-69
2023/02/24 12:28:20;;;;;;;18.20;11.70;;;;;;;7.83;83.39;98352.19;217097;1260;139051;-70
2023/02/24 12:33:42;;;;;;;14.00;7.80;;;;;;;7.79;83.03;98345.73;218949;1256;140754;-71
2023/02/24 12:39:08;;;;;;;16.90;10.00;;;;;;;7.76;82.96;98327.28;220557;1257;139235;-69
2023/02/24 12:44:25;;;;;;;14.40;9.00;;;;;;;7.70;82.22;98319.20;217970;1257;140558;-69
2023/02/24 12:49:42;;;;;;;13.30;7.60;;;;;;;7.70;82.62;98314.60;218895;1257;139215;-69
2023/02/24 12:55:00;;;;;;;12.70;9.10;;;;;;;7.85;82.43;98304.83;217643;1257;140009;-69
2023/02/24 13:00:21;;;;;;;17.70;9.10;;;;;;;8.08;81.84;98295.58;217672;1257;162381;-71
2023/02/24 13:05:32;;;;;;;8.20;6.00;;;;;;;8.23;81.64;98283.22;217881;1257;139523;-70
2023/02/24 13:10:49;;;;;;;12.10;8.50;;;;;;;8.43;81.41;98275.68;217671;1257;138949;-70
2023/02/24 13:15:59;;;;;;;12.90;7.50;;;;;;;8.37;80.58;98285.34;218129;1257;140058;-72
2023/02/24 13:21:08;;;;;;;8.50;5.80;;;;;;;8.22;80.41;98274.94;217787;1260;140593;-70
2023/02/24 13:26:25;;;;;;;10.30;8.00;;;;;;;8.13;80.28;98274.59;218049;1257;139891;-71
2023/02/24 13:31:44;;;;;;;10.60;7.80;;;;;;;8.05;80.26;98280.64;217554;1257;141666;-69
2023/02/24 13:36:49;;;;;;;11.80;7.20;;;;;;;7.94;80.01;98282.61;217563;1257;139369;-71
2023/02/24 13:42:30;;;;;;;13.40;8.00;;;;;;;7.81;79.73;98278.11;218299;1260;139319;-69
2023/02/24 13:47:34;;;;;;;7.60;5.60;;;;;;;7.68;79.48;98266.19;218041;1257;139965;-70
2023/02/24 13:53:08;;;;;;;7.60;5.80;;;;;;;7.58;79.10;98263.27;217850;1257;141284;-71
2023/02/24 13:58:40;;;;;;;8.40;5.50;;;;;;;7.44;78.78;98253.09;217682;1256;138549;-69
2023/02/24 14:04:07;;;;;;;5.20;4.70;;;;;;;7.48;78.65;98246.08;217612;1260;139968;-69
2023/02/24 14:09:18;;;;;;;6.90;5.00;;;;;;;7.56;78.08;98248.27;218108;1256;139456;-71
2023/02/24 14:14:22;;;;;;;6.90;5.10;;;;;;;7.43;77.82;98246.77;217643;1257;139637;-73
2023/02/24 14:19:25;;;;;;;4.80;4.30;;;;;;;7.33;77.28;98243.45;218404;1260;140244;-76
2023/02/24 14:24:28;;;;;;;8.00;5.40;;;;;;;7.22;77.19;98244.23;218543;1257;139424;-70
2023/02/24 14:29:35;;;;;;;8.80;6.70;;;;;;;7.19;77.16;98241.44;219057;1256;139237;-70
2023/02/24 14:34:47;;;;;;;9.10;5.10;;;;;;;7.19;77.08;98241.44;218320;1257;139779;-71
2023/02/24 14:39:55;;;;;;;9.00;5.30;;;;;;;7.12;77.24;98234.69;218886;1257;139627;-71
2023/02/24 14:44:59;;;;;;;19.90;7.00;;;;;;;7.06;76.91;98234.15;220418;1260;140718;-71
2023/02/24 14:50:03;;;;;;;9.40;6.00;;;;;;;6.98;76.88;98221.19;219325;1257;139128;-71
2023/02/24 14:55:20;;;;;;;6.50;4.40;;;;;;;6.99;76.61;98213.27;218509;1257;139252;-71
2023/02/24 15:00:30;;;;;;;9.10;6.40;;;;;;;6.98;76.54;98208.73;217692;1262;138356;-71
2023/02/24 15:05:38;;;;;;;9.90;6.10;;;;;;;6.89;76.75;98206.14;217680;1260;139336;-70
2023/02/24 15:10:46;;;;;;;8.00;6.00;;;;;;;6.78;76.77;98197.17;217396;1260;139196;-69
2023/02/24 15:15:49;;;;;;;9.40;6.50;;;;;;;6.72;76.51;98191.07;217456;1257;140250;-67
2023/02/24 15:21:05;;;;;;;13.50;9.20;;;;;;;6.62;76.75;98183.66;218908;1260;138879;-69
2023/02/24 15:26:25;;;;;;;10.70;7.40;;;;;;;6.52;76.68;98178.43;217469;1260;139156;-66
2023/02/24 15:31:28;;;;;;;10.30;6.80;;;;;;;6.47;76.60;98175.30;218752;1260;141292;-72
2023/02/24 15:36:35;;;;;;;9.90;8.70;;;;;;;6.37;76.63;98171.06;217463;1258;140457;-74
2023/02/24 15:41:40;;;;;;;11.40;8.30;;;;;;;6.27;76.62;98162.40;218091;1257;139297;-68
2023/02/24 15:46:45;;;;;;;45.70;27.20;;;;;;;6.19;76.19;98152.80;217561;1261;139538;-68
2023/02/24 15:51:52;;;;;;;12.90;9.50;;;;;;;6.10;76.35;98143.60;217542;1261;139659;-68
2023/02/24 15:56:58;;;;;;;16.30;12.60;;;;;;;6.01;76.70;98143.44;218334;1260;139778;-70
2023/02/24 16:02:04;;;;;;;22.20;19.90;;;;;;;5.95;76.58;98143.55;217492;1261;139969;-71
2023/02/24 16:07:15;;;;;;;11.60;6.30;;;;;;;5.88;76.62;98139.73;217686;1260;138982;-71
2023/02/24 16:12:24;;;;;;;10.70;7.60;;;;;;;5.83;76.42;98132.72;217631;1257;139202;-69
2023/02/24 16:17:34;;;;;;;9.80;7.50;;;;;;;5.72;76.24;98131.10;218143;1260;1243204;-70
2023/02/24 16:22:37;;;;;;;14.10;8.10;;;;;;;5.61;76.55;98136.48;218703;1261;139699;-69
2023/02/24 16:27:40;;;;;;;11.50;9.90;;;;;;;5.57;76.13;98140.37;218426;1257;140165;-69
2023/02/24 16:32:44;;;;;;;11.70;10.00;;;;;;;5.49;76.27;98138.87;217623;1256;139252;-70
2023/02/24 16:37:48;;;;;;;25.60;21.10;;;;;;;5.36;76.27;98134.50;220240;1257;139144;-67
2023/02/24 16:42:51;;;;;;;16.50;9.40;;;;;;;5.25;76.63;98128.98;219773;1260;140019;-69
2023/02/24 16:47:58;;;;;;;16.80;9.70;;;;;;;5.21;76.37;98126.33;218648;1260;140074;-74
2023/02/24 16:53:06;;;;;;;9.70;7.20;;;;;;;5.14;76.37;98120.10;219022;1257;140191;-67
2023/02/24 16:58:10;;;;;;;12.90;6.50;;;;;;;5.02;76.40;98120.47;218556;1260;138676;-66
2023/02/24 17:03:26;;;;;;;9.90;7.20;;;;;;;4.91;76.60;98116.89;218024;1261;139010;-72
2023/02/24 17:08:29;;;;;;;9.10;7.20;;;;;;;4.84;76.52;98110.49;218673;1260;140220;-70
2023/02/24 17:13:34;;;;;;;12.30;7.00;;;;;;;4.77;76.31;98108.41;217906;1260;139223;-71
2023/02/24 17:18:37;;;;;;;14.40;9.80;;;;;;;4.78;76.31;98104.78;217277;1261;139397;-69
2023/02/24 17:23:41;;;;;;;12.30;7.60;;;;;;;4.76;76.40;98097.98;217427;1263;139287;-72
2023/02/24 17:28:43;;;;;;;14.20;7.40;;;;;;;4.72;76.55;98098.35;217382;1257;138629;-71
2023/02/24 17:33:45;;;;;;;11.80;7.10;;;;;;;4.71;76.70;98092.04;217069;1262;139533;-70
2023/02/24 17:38:48;;;;;;;8.80;5.90;;;;;;;4.67;76.68;98081.62;217318;1260;140570;-72
2023/02/24 17:43:52;;;;;;;11.60;6.50;;;;;;;4.64;76.74;98074.02;217224;1260;139943;-69
2023/02/24 17:48:55;;;;;;;16.70;11.70;;;;;;;4.68;76.84;98067.75;217625;1258;139490;-70
2023/02/24 17:53:58;;;;;;;8.70;5.90;;;;;;;4.65;76.69;98062.64;217763;1257;139811;-68
2023/02/24 17:59:01;;;;;;;11.90;6.20;;;;;;;4.61;76.99;98055.64;218495;1257;139108;-64
2023/02/24 18:04:03;;;;;;;9.40;5.40;;;;;;;4.55;77.06;98045.80;217655;1258;139703;-66
2023/02/24 18:09:06;;;;;;;12.50;6.30;;;;;;;4.47;76.86;98040.98;217583;1260;139214;-69
2023/02/24 18:14:09;;;;;;;11.90;7.40;;;;;;;4.44;76.77;98029.96;217754;1260;140166;-67
2023/02/24 18:19:11;;;;;;;10.10;6.70;;;;;;;4.45;77.02;98025.14;218808;1257;139334;-69
2023/02/24 18:24:14;;;;;;;12.80;6.90;;;;;;;4.44;77.29;98018.79;218989;1258;139796;-68
2023/02/24 18:29:16;;;;;;;7.20;5.10;;;;;;;4.36;77.02;98013.04;220278;1256;141187;-67
2023/02/24 18:34:19;;;;;;;11.40;7.00;;;;;;;4.28;77.13;98009.95;220306;1257;141542;-66
2023/02/24 18:39:21;;;;;;;15.00;7.30;;;;;;;4.32;77.27;98002.20;220298;1257;140190;-66
2023/02/24 18:44:23;;;;;;;10.30;7.90;;;;;;;4.30;77.06;97994.02;219101;1258;140006;-67
2023/02/24 18:49:26;;;;;;;9.70;6.20;;;;;;;4.26;77.17;97984.71;217269;1257;139357;-66
2023/02/24 18:54:28;;;;;;;15.60;8.00;;;;;;;4.17;77.15;97976.63;218544;1257;139028;-69
2023/02/24 18:59:30;;;;;;;13.20;9.20;;;;;;;4.12;77.52;97971.95;217142;1257;139223;-66
2023/02/24 19:04:33;;;;;;;18.00;9.60;;;;;;;4.06;77.65;97966.71;217427;1257;140061;-65
2023/02/24 19:09:36;;;;;;;18.20;12.80;;;;;;;4.06;77.55;97966.50;217706;1258;139751;-65
2023/02/24 19:14:43;;;;;;;13.70;8.60;;;;;;;4.08;77.95;97960.54;219694;1257;140773;-66
2023/02/24 19:19:49;;;;;;;8.50;5.90;;;;;;;4.09;78.25;97950.42;217791;1257;139193;-65
2023/02/24 19:24:53;;;;;;;14.50;8.90;;;;;;;4.07;78.07;97943.05;217726;1257;139988;-66
2023/02/24 19:29:56;;;;;;;13.50;8.60;;;;;;;4.11;78.23;97943.65;217894;1258;139729;-66
2023/02/24 19:35:03;;;;;;;15.70;11.40;;;;;;;4.15;78.34;97939.26;217267;1257;140389;-67
2023/02/24 19:40:09;;;;;;;15.10;8.50;;;;;;;4.23;78.47;97934.06;218111;1260;208304;-66
2023/02/24 19:45:14;;;;;;;18.20;9.90;;;;;;;4.24;78.36;97916.52;217544;1257;138804;-67
2023/02/24 19:50:18;;;;;;;27.10;15.30;;;;;;;4.21;78.20;97913.56;218178;1257;140754;-68
2023/02/24 19:55:21;;;;;;;14.90;7.20;;;;;;;4.21;78.19;97914.35;217817;1257;139739;-68
2023/02/24 20:00:25;;;;;;;18.40;11.10;;;;;;;4.23;78.17;97911.07;217697;1257;140013;-67
2023/02/24 20:05:29;;;;;;;14.50;8.50;;;;;;;4.24;78.66;97912.89;218624;1257;139558;-68
2023/02/24 20:10:33;;;;;;;26.50;10.00;;;;;;;4.26;78.48;97913.70;218794;1256;139850;-67
2023/02/24 20:15:41;;;;;;;15.20;6.70;;;;;;;4.26;78.53;97906.16;218223;1256;139269;-67
2023/02/24 20:20:47;;;;;;;16.50;8.40;;;;;;;4.25;78.08;97899.23;217846;1257;139677;-67
2023/02/24 20:25:54;;;;;;;12.90;9.30;;;;;;;4.27;78.03;97889.20;219474;1257;139161;-66
2023/02/24 20:31:04;;;;;;;14.20;7.50;;;;;;;4.32;78.42;97886.63;220241;1257;140032;-67
2023/02/24 20:36:12;;;;;;;18.00;11.70;;;;;;;4.32;78.18;97881.88;218781;1256;139426;-67
2023/02/24 20:41:16;;;;;;;15.30;7.20;;;;;;;4.31;78.14;97867.62;218717;1257;139398;-67
2023/02/24 20:46:27;;;;;;;18.50;9.00;;;;;;;4.31;77.94;97863.04;217593;1257;139325;-67
2023/02/24 20:51:35;;;;;;;12.00;9.10;;;;;;;4.32;77.71;97852.02;219599;1256;139375;-65
2023/02/24 20:56:42;;;;;;;12.20;6.80;;;;;;;4.32;77.84;97844.27;218347;1257;138902;-67
2023/02/24 21:01:48;;;;;;;18.40;8.20;;;;;;;4.32;77.81;97845.57;218245;1256;139288;-66
2023/02/24 21:06:53;;;;;;;9.40;5.50;;;;;;;4.30;77.69;97836.20;218571;1257;138813;-69
2023/02/24 21:11:57;;;;;;;12.70;6.10;;;;;;;4.27;77.59;97825.63;218559;1256;138694;-66
2023/02/24 21:17:02;;;;;;;10.70;5.50;;;;;;;4.30;77.67;97822.40;218019;1258;139812;-68
2023/02/24 21:22:06;;;;;;;10.20;6.80;;;;;;;4.31;77.71;97812.96;217528;1260;139035;-68
2023/02/24 21:27:09;;;;;;;15.80;6.50;;;;;;;4.32;77.67;97796.63;217712;1257;139885;-64
2023/02/24 21:32:14;;;;;;;10.40;6.00;;;;;;;4.31;77.78;97790.70;218166;1256;139070;-65
2023/02/24 21:37:18;;;;;;;7.10;5.70;;;;;;;4.30;77.36;97774.71;217824;1257;138460;-64
2023/02/24 21:42:22;;;;;;;15.50;6.90;;;;;;;4.25;77.55;97769.53;217902;1257;138688;-65
2023/02/24 21:47:25;;;;;;;13.20;7.20;;;;;;;4.20;77.67;97759.17;219131;1257;138558;-69
2023/02/24 21:52:28;;;;;;;12.80;6.70;;;;;;;4.20;77.67;97760.17;217688;1257;139240;-65
2023/02/24 21:57:31;;;;;;;15.00;6.70;;;;;;;4.19;77.68;97753.36;217942;1257;139233;-65
2023/02/24 22:02:33;;;;;;;10.70;6.30;;;;;;;4.13;77.77;97743.08;218679;1256;140684;-67
2023/02/24 22:07:36;;;;;;;10.50;7.30;;;;;;;4.08;77.98;97730.72;219317;1257;140354;-68
2023/02/24 22:12:39;;;;;;;11.80;8.80;;;;;;;4.05;78.09;97730.58;218830;1256;139660;-65
2023/02/24 22:17:42;;;;;;;12.10;6.20;;;;;;;4.05;78.04;97727.77;219108;1256;139887;-66
2023/02/24 22:22:45;;;;;;;11.10;6.80;;;;;;;4.05;78.03;97721.13;220546;1256;139356;-66
2023/02/24 22:27:48;;;;;;;16.10;8.30;;;;;;;4.04;78.24;97716.27;218554;1257;140651;-65
2023/02/24 22:32:52;;;;;;;11.90;7.40;;;;;;;4.06;78.46;97713.29;217815;1257;139087;-67
2023/02/24 22:37:56;;;;;;;15.60;9.30;;;;;;;4.02;78.58;97707.54;217712;1257;139525;-66
2023/02/24 22:42:59;;;;;;;14.70;7.90;;;;;;;3.96;78.58;97702.77;217791;1256;141175;-65
2023/02/24 22:48:02;;;;;;;11.70;7.90;;;;;;;3.93;78.58;97693.55;218888;1256;139367;-65
2023/02/24 22:53:06;;;;;;;16.60;8.70;;;;;;;3.94;78.90;97682.61;217808;1260;139788;-64
2023/02/24 22:58:09;;;;;;;13.00;8.20;;;;;;;3.94;79.01;97673.60;217612;1260;139652;-65
2023/02/24 23:03:15;;;;;;;18.00;8.60;;;;;;;3.89;79.12;97669.67;218498;1256;139927;-64
2023/02/24 23:08:16;;;;;;;26.30;9.60;;;;;;;3.84;79.06;97662.64;217656;1257;138997;-67
2023/02/24 23:13:20;;;;;;;15.10;8.90;;;;;;;3.84;79.28;97655.62;218064;1260;140055;-66
2023/02/24 23:18:24;;;;;;;15.60;9.00;;;;;;;3.85;79.29;97654.02;217799;1256;139743;-66
2023/02/24 23:23:28;;;;;;;13.60;7.70;;;;;;;3.83;79.36;97651.44;218908;1256;139532;-66
2023/02/24 23:28:31;;;;;;;11.10;7.50;;;;;;;3.83;79.58;97646.85;218565;1256;140300;-66
2023/02/24 23:33:34;;;;;;;15.30;8.80;;;;;;;3.84;79.69;97645.98;218337;1256;138617;-65
2023/02/24 23:38:37;;;;;;;12.10;8.60;;;;;;;3.89;79.56;97638.52;217834;1256;138943;-65
2023/02/24 23:43:41;;;;;;;17.60;9.10;;;;;;;3.92;79.71;97634.29;218886;1256;139461;-65
2023/02/24 23:48:45;;;;;;;17.80;11.70;;;;;;;3.92;79.79;97632.66;217889;1260;139667;-68
2023/02/24 23:53:51;;;;;;;13.80;9.00;;;;;;;3.90;79.97;97629.10;219612;1256;139721;-66
2023/02/24 23:58:56;;;;;;;20.20;10.90;;;;;;;3.87;79.88;97623.04;218606;1257;140657;-64
